Terminal Aerodrome Forecast
Issued by NWS Detroit/Pontiac, MI

Home | Current Version | Previous Version | Text Only | Print | Product List | Glossary On
Versions: 1 2 3 4 5 6 7 8 9 10 11 12 13 14 15 16 17 18
000
FTUS43 KDTX 292320
TAFFNT
TAF
KFNT 292320Z 3000/3024 22014G22KT P6SM SCT018 OVC035
      TEMPO 3001/3003 6SM -SHRASN BKN025
     FM300400 26012KT P6SM BKN015 OVC025
     FM301400 28012KT P6SM BKN025
     FM301800 29015G25KT P6SM SCT035 SCT200=

USA.gov is the U.S. government's official web portal to all federal, state and local government web resources and services.